Terminal Aerodrome Forecast
Issued by NWS

Home | Current Version | Previous Version | Text Only | Print | Product List | Glossary On
Versions: 1 2 3 4 5 6 7 8 9 10 11 12 13 14 15 16 17 18 19
000
FTUS46 KPDT 270018 AAA
TAFALW
TAF AMD
KALW 270018Z 2700/2724 04014KT P6SM VCSH SCT050 BKN090
     FM270300 06008KT P6SM SCT100 SCT150
     FM270800 15006KT P6SM VCSH BKN060 OVC080
     FM271600 21005KT P6SM FEW050 SCT100=

USA.gov is the U.S. government's official web portal to all federal, state and local government web resources and services.